sensor_id;sensor_type;location;lat;lon;timestamp;P1;durP1;ratioP1;P2;durP2;ratioP2
4132;SDS011;2080;51.038;7.008;2023-04-25T00:00:28;509.67;;;458.20;;
4132;SDS011;2080;51.038;7.008;2023-04-25T00:02:53;473.23;;;423.30;;
4132;SDS011;2080;51.038;7.008;2023-04-25T00:05:21;509.40;;;458.17;;
4132;SDS011;2080;51.038;7.008;2023-04-25T00:07:49;438.57;;;390.50;;
4132;SDS011;2080;51.038;7.008;2023-04-25T00:10:18;492.07;;;441.80;;
4132;SDS011;2080;51.038;7.008;2023-04-25T00:12:45;515.70;;;464.33;;
4132;SDS011;2080;51.038;7.008;2023-04-25T00:15:11;491.47;;;441.30;;
4132;SDS011;2080;51.038;7.008;2023-04-25T00:17:41;429.53;;;378.17;;
4132;SDS011;2080;51.038;7.008;2023-04-25T00:20:07;453.00;;;403.60;;
4132;SDS011;2080;51.038;7.008;2023-04-25T00:22:34;465.20;;;415.97;;
4132;SDS011;2080;51.038;7.008;2023-04-25T00:25:07;453.97;;;405.27;;
4132;SDS011;2080;51.038;7.008;2023-04-25T00:27:32;434.87;;;386.70;;
4132;SDS011;2080;51.038;7.008;2023-04-25T00:30:00;477.00;;;425.20;;
4132;SDS011;2080;51.038;7.008;2023-04-25T00:32:26;475.90;;;424.20;;
4132;SDS011;2080;51.038;7.008;2023-04-25T00:34:51;371.80;;;169.33;;
4132;SDS011;2080;51.038;7.008;2023-04-25T00:37:16;493.60;;;439.40;;
4132;SDS011;2080;51.038;7.008;2023-04-25T00:39:43;481.13;;;428.67;;
4132;SDS011;2080;51.038;7.008;2023-04-25T00:42:11;464.30;;;400.37;;
4132;SDS011;2080;51.038;7.008;2023-04-25T00:44:39;458.93;;;403.13;;
4132;SDS011;2080;51.038;7.008;2023-04-25T00:47:04;455.33;;;389.33;;
4132;SDS011;2080;51.038;7.008;2023-04-25T00:49:35;438.77;;;358.47;;
4132;SDS011;2080;51.038;7.008;2023-04-25T00:52:07;447.57;;;348.10;;
4132;SDS011;2080;51.038;7.008;2023-04-25T00:54:32;458.40;;;386.87;;
4132;SDS011;2080;51.038;7.008;2023-04-25T00:57:05;436.83;;;344.07;;
4132;SDS011;2080;51.038;7.008;2023-04-25T00:59:30;471.40;;;412.53;;
4132;SDS011;2080;51.038;7.008;2023-04-25T01:01:56;496.63;;;443.33;;
4132;SDS011;2080;51.038;7.008;2023-04-25T01:04:22;457.97;;;404.93;;
4132;SDS011;2080;51.038;7.008;2023-04-25T01:06:47;469.60;;;392.47;;
4132;SDS011;2080;51.038;7.008;2023-04-25T01:09:16;456.00;;;386.77;;
4132;SDS011;2080;51.038;7.008;2023-04-25T01:11:41;425.03;;;311.97;;
4132;SDS011;2080;51.038;7.008;2023-04-25T01:14:09;367.37;;;165.37;;
4132;SDS011;2080;51.038;7.008;2023-04-25T01:16:34;402.60;;;261.83;;
4132;SDS011;2080;51.038;7.008;2023-04-25T01:19:01;501.87;;;448.73;;
4132;SDS011;2080;51.038;7.008;2023-04-25T01:21:26;405.33;;;248.60;;
4132;SDS011;2080;51.038;7.008;2023-04-25T01:23:58;479.30;;;422.63;;
4132;SDS011;2080;51.038;7.008;2023-04-25T01:26:24;355.23;;;171.50;;
4132;SDS011;2080;51.038;7.008;2023-04-25T01:28:50;416.63;;;299.93;;
4132;SDS011;2080;51.038;7.008;2023-04-25T01:31:15;435.27;;;324.00;;
4132;SDS011;2080;51.038;7.008;2023-04-25T01:33:41;405.87;;;252.50;;
4132;SDS011;2080;51.038;7.008;2023-04-25T01:36:07;425.33;;;312.73;;
4132;SDS011;2080;51.038;7.008;2023-04-25T01:38:33;455.20;;;374.70;;
4132;SDS011;2080;51.038;7.008;2023-04-25T01:40:58;478.77;;;411.57;;
4132;SDS011;2080;51.038;7.008;2023-04-25T01:43:29;313.60;;;92.07;;
4132;SDS011;2080;51.038;7.008;2023-04-25T01:45:56;355.00;;;167.17;;
4132;SDS011;2080;51.038;7.008;2023-04-25T01:48:22;418.73;;;276.83;;
4132;SDS011;2080;51.038;7.008;2023-04-25T01:50:47;532.30;;;410.47;;
4132;SDS011;2080;51.038;7.008;2023-04-25T01:53:13;343.17;;;116.57;;
4132;SDS011;2080;51.038;7.008;2023-04-25T01:55:40;365.90;;;152.37;;
4132;SDS011;2080;51.038;7.008;2023-04-25T01:58:06;338.70;;;101.93;;
4132;SDS011;2080;51.038;7.008;2023-04-25T02:00:39;322.47;;;86.07;;
4132;SDS011;2080;51.038;7.008;2023-04-25T02:03:05;401.03;;;226.03;;
4132;SDS011;2080;51.038;7.008;2023-04-25T02:05:35;327.70;;;100.30;;
4132;SDS011;2080;51.038;7.008;2023-04-25T02:08:06;460.70;;;310.77;;
4132;SDS011;2080;51.038;7.008;2023-04-25T02:10:33;351.20;;;126.63;;
4132;SDS011;2080;51.038;7.008;2023-04-25T02:12:59;337.60;;;98.87;;
4132;SDS011;2080;51.038;7.008;2023-04-25T02:15:25;319.97;;;102.03;;
4132;SDS011;2080;51.038;7.008;2023-04-25T02:17:50;339.27;;;97.47;;
4132;SDS011;2080;51.038;7.008;2023-04-25T02:20:17;336.50;;;112.00;;
4132;SDS011;2080;51.038;7.008;2023-04-25T02:22:47;326.97;;;106.80;;
4132;SDS011;2080;51.038;7.008;2023-04-25T02:25:15;329.33;;;106.73;;
4132;SDS011;2080;51.038;7.008;2023-04-25T02:27:41;547.60;;;451.40;;
4132;SDS011;2080;51.038;7.008;2023-04-25T02:30:07;521.83;;;395.07;;
4132;SDS011;2080;51.038;7.008;2023-04-25T02:32:33;327.40;;;99.30;;
4132;SDS011;2080;51.038;7.008;2023-04-25T02:34:59;436.87;;;286.20;;
4132;SDS011;2080;51.038;7.008;2023-04-25T02:37:28;338.03;;;113.63;;
4132;SDS011;2080;51.038;7.008;2023-04-25T02:39:54;579.40;;;511.80;;
4132;SDS011;2080;51.038;7.008;2023-04-25T02:42:22;332.97;;;98.30;;
4132;SDS011;2080;51.038;7.008;2023-04-25T02:44:52;396.47;;;223.97;;
4132;SDS011;2080;51.038;7.008;2023-04-25T02:47:20;369.77;;;154.27;;
4132;SDS011;2080;51.038;7.008;2023-04-25T02:49:45;357.27;;;155.37;;
4132;SDS011;2080;51.038;7.008;2023-04-25T02:52:11;562.17;;;446.20;;
4132;SDS011;2080;51.038;7.008;2023-04-25T02:54:39;307.57;;;87.33;;
4132;SDS011;2080;51.038;7.008;2023-04-25T02:57:05;530.77;;;468.63;;
4132;SDS011;2080;51.038;7.008;2023-04-25T02:59:31;366.43;;;148.07;;
4132;SDS011;2080;51.038;7.008;2023-04-25T03:01:58;334.00;;;96.70;;
4132;SDS011;2080;51.038;7.008;2023-04-25T03:04:26;332.87;;;99.60;;
4132;SDS011;2080;51.038;7.008;2023-04-25T03:06:52;316.00;;;100.90;;
4132;SDS011;2080;51.038;7.008;2023-04-25T03:09:18;505.63;;;408.00;;
4132;SDS011;2080;51.038;7.008;2023-04-25T03:11:44;313.23;;;79.10;;
4132;SDS011;2080;51.038;7.008;2023-04-25T03:14:10;305.03;;;80.33;;
4132;SDS011;2080;51.038;7.008;2023-04-25T03:16:36;487.37;;;368.40;;
4132;SDS011;2080;51.038;7.008;2023-04-25T03:19:03;328.47;;;92.30;;
4132;SDS011;2080;51.038;7.008;2023-04-25T03:21:32;355.33;;;143.27;;
4132;SDS011;2080;51.038;7.008;2023-04-25T03:23:59;321.17;;;86.40;;
4132;SDS011;2080;51.038;7.008;2023-04-25T03:26:27;301.53;;;70.47;;
4132;SDS011;2080;51.038;7.008;2023-04-25T03:28:57;338.23;;;121.60;;
4132;SDS011;2080;51.038;7.008;2023-04-25T03:31:23;315.60;;;71.60;;
4132;SDS011;2080;51.038;7.008;2023-04-25T03:33:48;346.50;;;109.70;;
4132;SDS011;2080;51.038;7.008;2023-04-25T03:36:16;330.03;;;102.70;;
4132;SDS011;2080;51.038;7.008;2023-04-25T03:38:41;306.83;;;88.17;;
4132;SDS011;2080;51.038;7.008;2023-04-25T03:41:11;309.67;;;98.97;;
4132;SDS011;2080;51.038;7.008;2023-04-25T03:43:36;327.23;;;95.20;;
4132;SDS011;2080;51.038;7.008;2023-04-25T03:46:01;481.63;;;292.80;;
4132;SDS011;2080;51.038;7.008;2023-04-25T03:48:27;312.13;;;75.77;;
4132;SDS011;2080;51.038;7.008;2023-04-25T03:50:53;300.40;;;69.17;;
4132;SDS011;2080;51.038;7.008;2023-04-25T03:53:18;304.13;;;87.83;;
4132;SDS011;2080;51.038;7.008;2023-04-25T03:55:46;326.53;;;96.97;;
4132;SDS011;2080;51.038;7.008;2023-04-25T03:58:12;298.17;;;74.03;;
4132;SDS011;2080;51.038;7.008;2023-04-25T04:00:37;354.97;;;149.50;;
4132;SDS011;2080;51.038;7.008;2023-04-25T04:03:05;341.97;;;126.60;;
4132;SDS011;2080;51.038;7.008;2023-04-25T04:05:30;344.60;;;133.07;;
4132;SDS011;2080;51.038;7.008;2023-04-25T04:07:56;325.80;;;88.77;;
4132;SDS011;2080;51.038;7.008;2023-04-25T04:10:21;342.40;;;119.07;;
4132;SDS011;2080;51.038;7.008;2023-04-25T04:12:49;313.13;;;83.67;;
4132;SDS011;2080;51.038;7.008;2023-04-25T04:15:14;328.17;;;88.77;;
4132;SDS011;2080;51.038;7.008;2023-04-25T04:17:42;320.43;;;102.80;;
4132;SDS011;2080;51.038;7.008;2023-04-25T04:20:07;310.30;;;98.53;;
4132;SDS011;2080;51.038;7.008;2023-04-25T04:22:36;315.20;;;80.10;;
4132;SDS011;2080;51.038;7.008;2023-04-25T04:25:04;342.40;;;115.37;;
4132;SDS011;2080;51.038;7.008;2023-04-25T04:27:32;311.47;;;95.30;;
4132;SDS011;2080;51.038;7.008;2023-04-25T04:29:57;342.27;;;105.53;;
4132;SDS011;2080;51.038;7.008;2023-04-25T04:32:23;308.03;;;89.33;;
4132;SDS011;2080;51.038;7.008;2023-04-25T04:34:48;324.87;;;103.37;;
4132;SDS011;2080;51.038;7.008;2023-04-25T04:37:14;308.93;;;80.93;;
4132;SDS011;2080;51.038;7.008;2023-04-25T04:39:42;362.43;;;152.30;;
4132;SDS011;2080;51.038;7.008;2023-04-25T04:42:07;327.70;;;109.07;;
4132;SDS011;2080;51.038;7.008;2023-04-25T04:44:33;436.70;;;304.27;;
4132;SDS011;2080;51.038;7.008;2023-04-25T04:46:59;339.07;;;93.23;;
4132;SDS011;2080;51.038;7.008;2023-04-25T04:49:27;327.50;;;92.07;;
4132;SDS011;2080;51.038;7.008;2023-04-25T04:51:55;325.00;;;89.80;;
4132;SDS011;2080;51.038;7.008;2023-04-25T04:54:22;415.97;;;268.17;;
4132;SDS011;2080;51.038;7.008;2023-04-25T04:56:47;313.03;;;84.70;;
4132;SDS011;2080;51.038;7.008;2023-04-25T04:59:13;356.87;;;138.73;;
4132;SDS011;2080;51.038;7.008;2023-04-25T05:01:40;332.33;;;101.03;;
4132;SDS011;2080;51.038;7.008;2023-04-25T05:04:08;312.07;;;71.77;;
4132;SDS011;2080;51.038;7.008;2023-04-25T05:06:34;417.87;;;232.73;;
4132;SDS011;2080;51.038;7.008;2023-04-25T05:08:59;524.07;;;439.37;;
4132;SDS011;2080;51.038;7.008;2023-04-25T05:11:24;338.07;;;111.17;;
4132;SDS011;2080;51.038;7.008;2023-04-25T05:13:56;316.03;;;77.40;;
4132;SDS011;2080;51.038;7.008;2023-04-25T05:16:21;301.17;;;78.03;;
4132;SDS011;2080;51.038;7.008;2023-04-25T05:18:47;318.03;;;100.00;;
4132;SDS011;2080;51.038;7.008;2023-04-25T05:21:16;304.50;;;65.07;;
4132;SDS011;2080;51.038;7.008;2023-04-25T05:23:42;311.73;;;89.97;;
4132;SDS011;2080;51.038;7.008;2023-04-25T05:26:07;303.80;;;76.13;;
4132;SDS011;2080;51.038;7.008;2023-04-25T05:28:38;394.73;;;218.10;;
4132;SDS011;2080;51.038;7.008;2023-04-25T05:31:07;357.93;;;108.40;;
4132;SDS011;2080;51.038;7.008;2023-04-25T05:33:34;327.17;;;90.63;;
4132;SDS011;2080;51.038;7.008;2023-04-25T05:36:00;333.00;;;117.50;;
4132;SDS011;2080;51.038;7.008;2023-04-25T05:38:28;326.27;;;79.57;;
4132;SDS011;2080;51.038;7.008;2023-04-25T05:40:57;322.23;;;106.33;;
4132;SDS011;2080;51.038;7.008;2023-04-25T05:43:23;298.17;;;78.23;;
4132;SDS011;2080;51.038;7.008;2023-04-25T05:45:48;314.70;;;81.70;;
4132;SDS011;2080;51.038;7.008;2023-04-25T05:48:14;345.83;;;127.70;;
4132;SDS011;2080;51.038;7.008;2023-04-25T05:50:39;303.13;;;66.30;;
4132;SDS011;2080;51.038;7.008;2023-04-25T05:53:04;365.80;;;146.33;;
4132;SDS011;2080;51.038;7.008;2023-04-25T05:55:30;307.67;;;71.37;;
4132;SDS011;2080;51.038;7.008;2023-04-25T05:57:56;298.67;;;66.53;;
4132;SDS011;2080;51.038;7.008;2023-04-25T06:00:24;423.07;;;294.30;;
4132;SDS011;2080;51.038;7.008;2023-04-25T06:02:49;416.10;;;262.50;;
4132;SDS011;2080;51.038;7.008;2023-04-25T06:05:15;329.33;;;75.27;;
4132;SDS011;2080;51.038;7.008;2023-04-25T06:07:40;302.40;;;61.43;;
4132;SDS011;2080;51.038;7.008;2023-04-25T06:10:06;374.37;;;188.57;;
4132;SDS011;2080;51.038;7.008;2023-04-25T06:12:32;293.57;;;58.77;;
4132;SDS011;2080;51.038;7.008;2023-04-25T06:14:58;354.53;;;126.17;;
4132;SDS011;2080;51.038;7.008;2023-04-25T06:17:26;317.83;;;74.43;;
4132;SDS011;2080;51.038;7.008;2023-04-25T06:19:52;325.17;;;87.23;;
4132;SDS011;2080;51.038;7.008;2023-04-25T06:22:17;853.50;;;708.57;;
4132;SDS011;2080;51.038;7.008;2023-04-25T06:24:45;315.47;;;85.87;;
4132;SDS011;2080;51.038;7.008;2023-04-25T06:27:11;357.13;;;146.00;;
4132;SDS011;2080;51.038;7.008;2023-04-25T06:29:38;347.83;;;125.20;;
4132;SDS011;2080;51.038;7.008;2023-04-25T06:32:04;339.73;;;100.73;;
4132;SDS011;2080;51.038;7.008;2023-04-25T06:34:29;443.13;;;275.17;;
4132;SDS011;2080;51.038;7.008;2023-04-25T06:36:55;367.00;;;138.40;;
4132;SDS011;2080;51.038;7.008;2023-04-25T06:39:20;618.33;;;558.70;;
4132;SDS011;2080;51.038;7.008;2023-04-25T06:41:51;339.90;;;77.23;;
4132;SDS011;2080;51.038;7.008;2023-04-25T06:44:16;382.63;;;198.90;;
4132;SDS011;2080;51.038;7.008;2023-04-25T06:46:44;467.67;;;408.53;;
4132;SDS011;2080;51.038;7.008;2023-04-25T06:49:09;550.43;;;494.07;;
4132;SDS011;2080;51.038;7.008;2023-04-25T06:51:34;888.90;;;811.53;;
4132;SDS011;2080;51.038;7.008;2023-04-25T06:54:00;826.80;;;749.60;;
4132;SDS011;2080;51.038;7.008;2023-04-25T06:56:25;872.90;;;796.07;;
4132;SDS011;2080;51.038;7.008;2023-04-25T06:58:50;909.63;;;828.20;;
4132;SDS011;2080;51.038;7.008;2023-04-25T07:01:18;873.53;;;796.13;;
4132;SDS011;2080;51.038;7.008;2023-04-25T07:03:43;749.13;;;682.27;;
4132;SDS011;2080;51.038;7.008;2023-04-25T07:06:09;883.70;;;800.90;;
4132;SDS011;2080;51.038;7.008;2023-04-25T07:08:34;875.23;;;799.17;;
4132;SDS011;2080;51.038;7.008;2023-04-25T07:11:04;897.23;;;819.67;;
4132;SDS011;2080;51.038;7.008;2023-04-25T07:13:30;897.07;;;816.03;;
4132;SDS011;2080;51.038;7.008;2023-04-25T07:15:55;828.13;;;753.97;;
4132;SDS011;2080;51.038;7.008;2023-04-25T07:18:21;774.80;;;705.50;;
4132;SDS011;2080;51.038;7.008;2023-04-25T07:20:49;844.13;;;770.20;;
4132;SDS011;2080;51.038;7.008;2023-04-25T07:23:18;955.57;;;867.03;;
4132;SDS011;2080;51.038;7.008;2023-04-25T07:25:43;921.43;;;840.77;;
4132;SDS011;2080;51.038;7.008;2023-04-25T07:28:10;892.27;;;808.73;;
4132;SDS011;2080;51.038;7.008;2023-04-25T07:30:36;851.23;;;776.30;;
4132;SDS011;2080;51.038;7.008;2023-04-25T07:33:01;692.87;;;624.83;;
4132;SDS011;2080;51.038;7.008;2023-04-25T07:35:27;860.63;;;784.87;;
4132;SDS011;2080;51.038;7.008;2023-04-25T07:37:52;777.67;;;708.43;;
4132;SDS011;2080;51.038;7.008;2023-04-25T07:40:17;918.53;;;832.23;;
4132;SDS011;2080;51.038;7.008;2023-04-25T07:42:43;904.03;;;825.20;;
4132;SDS011;2080;51.038;7.008;2023-04-25T07:45:08;813.73;;;739.13;;
4132;SDS011;2080;51.038;7.008;2023-04-25T07:47:36;696.90;;;625.47;;
4132;SDS011;2080;51.038;7.008;2023-04-25T07:50:03;700.73;;;619.33;;
4132;SDS011;2080;51.038;7.008;2023-04-25T07:52:29;722.73;;;650.63;;
4132;SDS011;2080;51.038;7.008;2023-04-25T07:54:54;596.57;;;537.00;;
4132;SDS011;2080;51.038;7.008;2023-04-25T07:57:19;1481.20;;;754.60;;
4132;SDS011;2080;51.038;7.008;2023-04-25T07:59:45;748.23;;;666.47;;
4132;SDS011;2080;51.038;7.008;2023-04-25T08:02:15;863.80;;;775.13;;
4132;SDS011;2080;51.038;7.008;2023-04-25T08:04:40;793.17;;;719.90;;
4132;SDS011;2080;51.038;7.008;2023-04-25T08:07:08;827.00;;;745.53;;
4132;SDS011;2080;51.038;7.008;2023-04-25T08:09:34;488.03;;;433.83;;
4132;SDS011;2080;51.038;7.008;2023-04-25T08:12:03;488.53;;;407.23;;
4132;SDS011;2080;51.038;7.008;2023-04-25T08:14:33;465.57;;;324.57;;
4132;SDS011;2080;51.038;7.008;2023-04-25T08:17:02;449.93;;;257.50;;
4132;SDS011;2080;51.038;7.008;2023-04-25T08:19:30;460.13;;;297.30;;
4132;SDS011;2080;51.038;7.008;2023-04-25T08:21:56;510.70;;;426.93;;
4132;SDS011;2080;51.038;7.008;2023-04-25T08:24:21;468.80;;;298.07;;
4132;SDS011;2080;51.038;7.008;2023-04-25T08:26:50;489.67;;;404.30;;
4132;SDS011;2080;51.038;7.008;2023-04-25T08:29:18;504.23;;;432.90;;
4132;SDS011;2080;51.038;7.008;2023-04-25T08:31:44;551.77;;;491.77;;
4132;SDS011;2080;51.038;7.008;2023-04-25T08:34:09;626.90;;;561.50;;
4132;SDS011;2080;51.038;7.008;2023-04-25T08:36:36;593.57;;;531.43;;
4132;SDS011;2080;51.038;7.008;2023-04-25T08:39:01;461.73;;;305.53;;
4132;SDS011;2080;51.038;7.008;2023-04-25T08:41:27;660.53;;;594.87;;
4132;SDS011;2080;51.038;7.008;2023-04-25T08:43:53;656.80;;;592.67;;
4132;SDS011;2080;51.038;7.008;2023-04-25T08:46:25;500.97;;;376.50;;
4132;SDS011;2080;51.038;7.008;2023-04-25T08:48:50;481.30;;;383.23;;
4132;SDS011;2080;51.038;7.008;2023-04-25T08:51:22;526.17;;;421.93;;
4132;SDS011;2080;51.038;7.008;2023-04-25T08:53:54;847.70;;;770.83;;
4132;SDS011;2080;51.038;7.008;2023-04-25T08:56:21;728.60;;;660.63;;
4132;SDS011;2080;51.038;7.008;2023-04-25T08:58:48;486.33;;;372.70;;
4132;SDS011;2080;51.038;7.008;2023-04-25T09:01:17;533.00;;;440.57;;
4132;SDS011;2080;51.038;7.008;2023-04-25T09:03:44;524.37;;;405.53;;
4132;SDS011;2080;51.038;7.008;2023-04-25T09:06:10;469.50;;;341.20;;
4132;SDS011;2080;51.038;7.008;2023-04-25T09:08:36;500.90;;;429.40;;
4132;SDS011;2080;51.038;7.008;2023-04-25T09:11:06;462.17;;;328.20;;
4132;SDS011;2080;51.038;7.008;2023-04-25T09:13:34;570.90;;;510.13;;
4132;SDS011;2080;51.038;7.008;2023-04-25T09:16:00;623.47;;;562.57;;
4132;SDS011;2080;51.038;7.008;2023-04-25T09:18:26;572.70;;;515.47;;
4132;SDS011;2080;51.038;7.008;2023-04-25T09:20:53;631.53;;;570.43;;
4132;SDS011;2080;51.038;7.008;2023-04-25T09:23:20;548.60;;;493.43;;
4132;SDS011;2080;51.038;7.008;2023-04-25T09:25:48;670.97;;;606.53;;
4132;SDS011;2080;51.038;7.008;2023-04-25T09:28:24;637.70;;;575.43;;
4132;SDS011;2080;51.038;7.008;2023-04-25T09:30:56;620.80;;;559.57;;
4132;SDS011;2080;51.038;7.008;2023-04-25T09:33:28;614.70;;;552.87;;
4132;SDS011;2080;51.038;7.008;2023-04-25T09:35:56;587.03;;;529.63;;
4132;SDS011;2080;51.038;7.008;2023-04-25T09:38:29;486.63;;;431.33;;
4132;SDS011;2080;51.038;7.008;2023-04-25T09:40:56;480.33;;;309.67;;
4132;SDS011;2080;51.038;7.008;2023-04-25T09:43:24;511.33;;;456.20;;
4132;SDS011;2080;51.038;7.008;2023-04-25T09:45:53;468.17;;;377.20;;
4132;SDS011;2080;51.038;7.008;2023-04-25T09:48:22;429.63;;;298.87;;
4132;SDS011;2080;51.038;7.008;2023-04-25T09:51:05;388.40;;;195.77;;
4132;SDS011;2080;51.038;7.008;2023-04-25T09:53:42;325.00;;;69.63;;
4132;SDS011;2080;51.038;7.008;2023-04-25T09:56:11;308.97;;;59.27;;
4132;SDS011;2080;51.038;7.008;2023-04-25T09:58:41;385.77;;;192.93;;
4132;SDS011;2080;51.038;7.008;2023-04-25T10:01:07;368.23;;;158.03;;
4132;SDS011;2080;51.038;7.008;2023-04-25T10:03:38;351.80;;;110.83;;
4132;SDS011;2080;51.038;7.008;2023-04-25T10:06:08;362.33;;;143.13;;
4132;SDS011;2080;51.038;7.008;2023-04-25T10:08:38;300.33;;;51.43;;
4132;SDS011;2080;51.038;7.008;2023-04-25T10:11:04;338.67;;;86.67;;
4132;SDS011;2080;51.038;7.008;2023-04-25T10:13:31;308.53;;;82.07;;
4132;SDS011;2080;51.038;7.008;2023-04-25T10:15:59;339.70;;;110.60;;
4132;SDS011;2080;51.038;7.008;2023-04-25T10:18:26;346.33;;;112.03;;
4132;SDS011;2080;51.038;7.008;2023-04-25T10:20:59;306.70;;;49.47;;
4132;SDS011;2080;51.038;7.008;2023-04-25T10:23:26;378.63;;;175.20;;
4132;SDS011;2080;51.038;7.008;2023-04-25T10:25:54;287.27;;;41.83;;
4132;SDS011;2080;51.038;7.008;2023-04-25T10:28:20;314.17;;;62.60;;
4132;SDS011;2080;51.038;7.008;2023-04-25T10:33:36;295.53;;;39.57;;
4132;SDS011;2080;51.038;7.008;2023-04-25T10:36:14;362.87;;;129.53;;
4132;SDS011;2080;51.038;7.008;2023-04-25T10:38:47;401.13;;;226.87;;
4132;SDS011;2080;51.038;7.008;2023-04-25T10:41:13;433.20;;;313.27;;
4132;SDS011;2080;51.038;7.008;2023-04-25T10:46:24;332.00;;;88.97;;
4132;SDS011;2080;51.038;7.008;2023-04-25T10:48:55;329.50;;;97.13;;
4132;SDS011;2080;51.038;7.008;2023-04-25T10:56:33;273.73;;;33.40;;
4132;SDS011;2080;51.038;7.008;2023-04-25T10:59:15;284.53;;;28.00;;
4132;SDS011;2080;51.038;7.008;2023-04-25T11:01:47;338.97;;;98.97;;
4132;SDS011;2080;51.038;7.008;2023-04-25T11:04:25;343.30;;;120.60;;
4132;SDS011;2080;51.038;7.008;2023-04-25T11:07:10;341.37;;;97.27;;
4132;SDS011;2080;51.038;7.008;2023-04-25T11:09:41;324.87;;;75.70;;
4132;SDS011;2080;51.038;7.008;2023-04-25T11:12:09;351.63;;;133.77;;
4132;SDS011;2080;51.038;7.008;2023-04-25T11:14:38;408.13;;;241.37;;
4132;SDS011;2080;51.038;7.008;2023-04-25T11:17:03;329.50;;;81.90;;
4132;SDS011;2080;51.038;7.008;2023-04-25T11:19:29;315.83;;;52.87;;
4132;SDS011;2080;51.038;7.008;2023-04-25T11:21:55;368.53;;;144.70;;
4132;SDS011;2080;51.038;7.008;2023-04-25T11:24:27;325.67;;;103.63;;
4132;SDS011;2080;51.038;7.008;2023-04-25T11:26:53;353.73;;;171.43;;
4132;SDS011;2080;51.038;7.008;2023-04-25T11:29:27;304.03;;;46.37;;
4132;SDS011;2080;51.038;7.008;2023-04-25T11:31:54;365.80;;;147.33;;
4132;SDS011;2080;51.038;7.008;2023-04-25T11:34:23;379.83;;;186.10;;
4132;SDS011;2080;51.038;7.008;2023-04-25T11:36:51;350.67;;;145.30;;
4132;SDS011;2080;51.038;7.008;2023-04-25T11:39:18;489.77;;;432.17;;
4132;SDS011;2080;51.038;7.008;2023-04-25T11:41:44;472.37;;;339.70;;
4132;SDS011;2080;51.038;7.008;2023-04-25T11:44:12;303.30;;;52.20;;
4132;SDS011;2080;51.038;7.008;2023-04-25T11:46:43;387.53;;;204.23;;
4132;SDS011;2080;51.038;7.008;2023-04-25T11:49:11;367.87;;;180.40;;
4132;SDS011;2080;51.038;7.008;2023-04-25T11:51:40;574.53;;;514.67;;
4132;SDS011;2080;51.038;7.008;2023-04-25T11:54:14;349.80;;;142.87;;
4132;SDS011;2080;51.038;7.008;2023-04-25T11:56:45;343.20;;;112.77;;
4132;SDS011;2080;51.038;7.008;2023-04-25T11:59:11;335.90;;;106.77;;
4132;SDS011;2080;51.038;7.008;2023-04-25T12:01:37;423.10;;;276.20;;
4132;SDS011;2080;51.038;7.008;2023-04-25T12:04:16;416.40;;;276.77;;
4132;SDS011;2080;51.038;7.008;2023-04-25T12:06:42;287.63;;;37.90;;
4132;SDS011;2080;51.038;7.008;2023-04-25T12:09:12;300.57;;;48.80;;
4132;SDS011;2080;51.038;7.008;2023-04-25T12:11:41;511.23;;;383.20;;
4132;SDS011;2080;51.038;7.008;2023-04-25T12:14:11;649.53;;;589.33;;
4132;SDS011;2080;51.038;7.008;2023-04-25T12:16:46;395.40;;;239.57;;
4132;SDS011;2080;51.038;7.008;2023-04-25T12:19:19;416.17;;;277.47;;
4132;SDS011;2080;51.038;7.008;2023-04-25T12:21:48;596.67;;;534.23;;
4132;SDS011;2080;51.038;7.008;2023-04-25T12:24:17;533.97;;;479.27;;
4132;SDS011;2080;51.038;7.008;2023-04-25T12:27:03;536.43;;;476.60;;
4132;SDS011;2080;51.038;7.008;2023-04-25T12:29:30;542.07;;;486.17;;
4132;SDS011;2080;51.038;7.008;2023-04-25T12:31:59;557.13;;;495.17;;
4132;SDS011;2080;51.038;7.008;2023-04-25T12:34:27;616.70;;;554.10;;
4132;SDS011;2080;51.038;7.008;2023-04-25T12:36:56;324.20;;;76.97;;
4132;SDS011;2080;51.038;7.008;2023-04-25T12:39:23;305.83;;;53.53;;
4132;SDS011;2080;51.038;7.008;2023-04-25T12:41:53;400.80;;;262.93;;
4132;SDS011;2080;51.038;7.008;2023-04-25T12:44:21;381.57;;;205.97;;
4132;SDS011;2080;51.038;7.008;2023-04-25T12:46:47;450.13;;;290.50;;
4132;SDS011;2080;51.038;7.008;2023-04-25T12:49:13;476.97;;;361.53;;
4132;SDS011;2080;51.038;7.008;2023-04-25T12:51:38;638.47;;;492.77;;
4132;SDS011;2080;51.038;7.008;2023-04-25T12:54:04;840.47;;;762.20;;
4132;SDS011;2080;51.038;7.008;2023-04-25T12:56:32;603.83;;;541.03;;
4132;SDS011;2080;51.038;7.008;2023-04-25T12:59:00;953.27;;;869.60;;
4132;SDS011;2080;51.038;7.008;2023-04-25T13:01:27;613.67;;;553.80;;
4132;SDS011;2080;51.038;7.008;2023-04-25T13:03:54;423.83;;;290.37;;
4132;SDS011;2080;51.038;7.008;2023-04-25T13:06:21;389.90;;;222.50;;
4132;SDS011;2080;51.038;7.008;2023-04-25T13:08:49;583.93;;;519.70;;
4132;SDS011;2080;51.038;7.008;2023-04-25T13:11:17;380.77;;;215.37;;
4132;SDS011;2080;51.038;7.008;2023-04-25T13:13:43;369.80;;;193.80;;
4132;SDS011;2080;51.038;7.008;2023-04-25T13:16:09;565.00;;;432.90;;
4132;SDS011;2080;51.038;7.008;2023-04-25T13:18:35;375.13;;;170.07;;
4132;SDS011;2080;51.038;7.008;2023-04-25T13:21:01;728.83;;;660.03;;
4132;SDS011;2080;51.038;7.008;2023-04-25T13:23:29;705.40;;;633.03;;
4132;SDS011;2080;51.038;7.008;2023-04-25T13:25:57;958.37;;;855.30;;
4132;SDS011;2080;51.038;7.008;2023-04-25T13:28:23;788.37;;;557.10;;
4132;SDS011;2080;51.038;7.008;2023-04-25T13:30:54;1916.70;;;999.90;;
4132;SDS011;2080;51.038;7.008;2023-04-25T13:33:20;1094.47;;;984.27;;
4132;SDS011;2080;51.038;7.008;2023-04-25T13:35:48;1049.10;;;946.97;;
4132;SDS011;2080;51.038;7.008;2023-04-25T13:38:21;1116.27;;;999.90;;
4132;SDS011;2080;51.038;7.008;2023-04-25T13:40:47;1091.33;;;977.00;;
4132;SDS011;2080;51.038;7.008;2023-04-25T13:43:19;830.90;;;750.97;;
4132;SDS011;2080;51.038;7.008;2023-04-25T13:45:46;673.87;;;608.67;;
4132;SDS011;2080;51.038;7.008;2023-04-25T13:48:12;808.23;;;728.33;;
4132;SDS011;2080;51.038;7.008;2023-04-25T13:50:37;727.57;;;656.03;;
4132;SDS011;2080;51.038;7.008;2023-04-25T13:53:05;922.00;;;833.37;;
4132;SDS011;2080;51.038;7.008;2023-04-25T13:55:35;831.23;;;758.27;;
4132;SDS011;2080;51.038;7.008;2023-04-25T13:58:03;707.70;;;632.20;;
4132;SDS011;2080;51.038;7.008;2023-04-25T14:00:33;525.13;;;435.10;;
4132;SDS011;2080;51.038;7.008;2023-04-25T14:02:59;827.53;;;755.23;;
4132;SDS011;2080;51.038;7.008;2023-04-25T14:05:27;734.10;;;669.33;;
4132;SDS011;2080;51.038;7.008;2023-04-25T14:07:52;755.50;;;682.20;;
4132;SDS011;2080;51.038;7.008;2023-04-25T14:10:18;834.73;;;762.83;;
4132;SDS011;2080;51.038;7.008;2023-04-25T14:12:43;740.30;;;673.60;;
4132;SDS011;2080;51.038;7.008;2023-04-25T14:15:11;673.60;;;602.80;;
4132;SDS011;2080;51.038;7.008;2023-04-25T14:17:36;775.20;;;703.77;;
4132;SDS011;2080;51.038;7.008;2023-04-25T14:20:02;592.30;;;524.23;;
4132;SDS011;2080;51.038;7.008;2023-04-25T14:22:30;404.47;;;260.67;;
4132;SDS011;2080;51.038;7.008;2023-04-25T14:24:55;835.37;;;762.30;;
4132;SDS011;2080;51.038;7.008;2023-04-25T14:27:23;1240.43;;;913.90;;
4132;SDS011;2080;51.038;7.008;2023-04-25T14:29:49;778.37;;;710.30;;
4132;SDS011;2080;51.038;7.008;2023-04-25T14:32:14;354.83;;;147.67;;
4132;SDS011;2080;51.038;7.008;2023-04-25T14:34:40;398.63;;;230.77;;